createdAt,value
2023-11-18T00:01:46.950Z,11.00
2023-11-18T00:04:32.565Z,10.90
2023-11-18T00:07:18.416Z,10.50
2023-11-18T00:10:05.395Z,10.40
2023-11-18T00:12:51.072Z,10.60
2023-11-18T00:15:37.125Z,10.80
2023-11-18T00:18:24.557Z,10.90
2023-11-18T00:21:10.278Z,10.70
2023-11-18T00:23:57.083Z,10.80
2023-11-18T00:26:42.518Z,10.90
2023-11-18T00:29:28.444Z,10.60
2023-11-18T00:32:14.417Z,10.60
2023-11-18T00:35:02.049Z,10.60
2023-11-18T00:37:49.109Z,10.60
2023-11-18T00:40:36.350Z,10.40
2023-11-18T00:43:23.803Z,10.40
2023-11-18T00:46:09.379Z,10.40
2023-11-18T00:48:59.116Z,10.30
2023-11-18T00:51:46.410Z,10.30
2023-11-18T00:54:31.961Z,10.10
2023-11-18T00:57:18.177Z,9.90
2023-11-18T01:00:04.303Z,9.90
2023-11-18T01:02:51.033Z,9.80
2023-11-18T01:05:36.785Z,9.60
2023-11-18T01:08:24.214Z,9.60
2023-11-18T01:11:10.288Z,9.60
2023-11-18T01:13:57.089Z,9.80
2023-11-18T01:16:42.873Z,9.70
2023-11-18T01:19:29.543Z,9.60
2023-11-18T01:22:15.651Z,9.50
2023-11-18T01:25:02.463Z,9.60
2023-11-18T01:27:48.305Z,9.40
2023-11-18T01:30:33.877Z,9.20
2023-11-18T01:33:19.643Z,9.30
2023-11-18T01:36:06.797Z,9.30
2023-11-18T01:38:52.648Z,9.30
2023-11-18T01:41:40.099Z,9.50
2023-11-18T01:44:25.676Z,9.60
2023-11-18T01:47:15.099Z,9.70
2023-11-18T01:50:02.473Z,9.70
2023-11-18T01:52:49.593Z,9.20
2023-11-18T01:55:35.768Z,9.40
2023-11-18T01:58:24.199Z,9.50
2023-11-18T02:01:11.252Z,9.50
2023-11-18T02:03:57.234Z,9.60
2023-11-18T02:06:43.770Z,9.70
2023-11-18T02:09:30.310Z,9.50
2023-11-18T02:12:26.686Z,9.50
2023-11-18T02:15:15.512Z,9.50
2023-11-18T02:18:04.925Z,9.50
2023-11-18T02:20:51.571Z,9.60
2023-11-18T02:23:38.503Z,9.60
2023-11-18T02:26:26.895Z,9.70
2023-11-18T02:29:12.900Z,9.80
2023-11-18T02:32:03.427Z,9.90
2023-11-18T02:34:56.623Z,9.90
2023-11-18T02:37:48.416Z,9.90
2023-11-18T02:40:36.961Z,9.90
2023-11-18T02:43:25.298Z,10.10
2023-11-18T02:46:16.530Z,10.10
2023-11-18T02:49:03.569Z,10.00
2023-11-18T02:51:49.256Z,10.20
2023-11-18T02:54:34.962Z,9.90
2023-11-18T02:57:20.570Z,9.90
2023-11-18T03:00:24.548Z,10.10
2023-11-18T03:03:10.594Z,10.10
2023-11-18T03:05:56.702Z,10.20
2023-11-18T03:08:42.682Z,10.10
2023-11-18T03:11:31.011Z,9.90
2023-11-18T03:14:16.897Z,9.60
2023-11-18T03:17:07.421Z,9.90
2023-11-18T03:19:53.343Z,9.80
2023-11-18T03:22:39.318Z,9.90
2023-11-18T03:25:25.071Z,9.90
2023-11-18T03:28:10.448Z,9.90
2023-11-18T03:30:56.387Z,9.90
2023-11-18T03:33:43.661Z,9.90
2023-11-18T03:36:29.188Z,9.80
2023-11-18T03:39:15.405Z,9.50
2023-11-18T03:42:01.059Z,9.50
2023-11-18T03:44:48.742Z,9.60
2023-11-18T03:47:35.226Z,9.80
2023-11-18T03:50:22.319Z,9.90
2023-11-18T03:53:07.930Z,10.00
2023-11-18T03:55:53.936Z,9.90
2023-11-18T03:58:41.896Z,9.90
2023-11-18T04:01:28.625Z,9.60
2023-11-18T04:04:14.328Z,9.90
2023-11-18T04:07:04.314Z,9.80
2023-11-18T04:09:50.926Z,9.90
2023-11-18T04:12:38.748Z,9.80
2023-11-18T04:15:25.355Z,9.80
2023-11-18T04:18:11.308Z,9.60
2023-11-18T04:20:59.101Z,9.80
2023-11-18T04:23:47.828Z,9.90
2023-11-18T04:26:33.784Z,9.40
2023-11-18T04:29:19.733Z,9.50
2023-11-18T04:32:06.076Z,9.60
2023-11-18T04:34:52.580Z,9.60
2023-11-18T04:37:38.474Z,9.90
2023-11-18T04:40:25.808Z,9.90
2023-11-18T04:43:11.972Z,9.90
2023-11-18T04:45:57.392Z,10.00
2023-11-18T04:48:44.090Z,9.80
2023-11-18T04:51:31.396Z,9.80
2023-11-18T04:54:17.052Z,9.70
2023-11-18T04:57:04.840Z,9.90
2023-11-18T04:59:50.748Z,9.90
2023-11-18T05:02:36.413Z,9.70
2023-11-18T05:05:23.378Z,9.50
2023-11-18T05:08:19.764Z,9.60
2023-11-18T05:11:06.135Z,9.50
2023-11-18T05:13:54.571Z,9.70
2023-11-18T05:16:40.494Z,9.80
2023-11-18T05:19:26.880Z,9.80
2023-11-18T05:22:12.415Z,9.60
2023-11-18T05:24:58.709Z,9.60
2023-11-18T05:27:45.227Z,9.90
2023-11-18T05:30:32.405Z,10.10
2023-11-18T05:33:19.025Z,9.90
2023-11-18T05:36:08.459Z,10.00
2023-11-18T05:38:55.022Z,9.90
2023-11-18T05:41:42.214Z,10.00
2023-11-18T05:44:31.888Z,9.60
2023-11-18T05:47:18.937Z,9.80
2023-11-18T05:50:06.751Z,9.80
2023-11-18T05:52:53.637Z,9.70
2023-11-18T05:55:39.672Z,9.50
2023-11-18T05:58:25.663Z,9.50
2023-11-18T06:01:12.407Z,9.50
2023-11-18T06:04:00.361Z,9.60
2023-11-18T06:06:45.946Z,9.80
2023-11-18T06:09:31.387Z,9.80
2023-11-18T06:12:18.849Z,9.80
2023-11-18T06:15:05.345Z,9.80
2023-11-18T06:17:51.027Z,9.80
2023-11-18T06:20:39.603Z,9.80
2023-11-18T06:23:27.116Z,9.90
2023-11-18T06:26:13.117Z,9.80
2023-11-18T06:29:00.646Z,9.60
2023-11-18T06:31:46.554Z,9.80
2023-11-18T06:34:32.157Z,9.50
2023-11-18T06:37:19.073Z,9.30
2023-11-18T06:40:17.226Z,9.60
2023-11-18T06:43:04.113Z,9.60
2023-11-18T06:45:49.827Z,9.70
2023-11-18T06:48:36.215Z,9.80
2023-11-18T06:51:25.416Z,9.90
2023-11-18T06:54:14.774Z,9.80
2023-11-18T06:57:00.669Z,9.80
2023-11-18T06:59:46.434Z,9.60
2023-11-18T07:02:31.874Z,9.60
2023-11-18T07:05:18.521Z,9.70
2023-11-18T07:08:05.061Z,9.90
2023-11-18T07:10:52.451Z,9.90
2023-11-18T07:13:38.521Z,9.80
2023-11-18T07:16:25.175Z,10.00
2023-11-18T07:19:16.159Z,9.60
2023-11-18T07:22:03.636Z,9.90
2023-11-18T07:24:49.374Z,9.60
2023-11-18T07:27:37.158Z,9.80
2023-11-18T07:30:24.512Z,9.80
2023-11-18T07:33:10.390Z,9.90
2023-11-18T07:35:56.610Z,9.90
2023-11-18T07:38:42.564Z,9.40
2023-11-18T07:41:30.785Z,9.30
2023-11-18T07:44:19.844Z,9.50
2023-11-18T07:47:06.533Z,9.90
2023-11-18T07:49:52.497Z,9.80
2023-11-18T07:52:38.474Z,10.00
2023-11-18T07:55:24.653Z,10.10
2023-11-18T07:58:13.712Z,10.30
2023-11-18T08:01:01.380Z,10.20
2023-11-18T08:03:48.827Z,10.10
2023-11-18T08:06:34.779Z,10.20
2023-11-18T08:09:24.580Z,10.00
2023-11-18T08:12:10.403Z,10.00
2023-11-18T08:14:56.336Z,10.30
2023-11-18T08:17:43.328Z,10.00
2023-11-18T08:20:29.406Z,9.90
2023-11-18T08:23:15.022Z,10.00
2023-11-18T08:26:00.869Z,10.30
2023-11-18T08:28:46.875Z,10.20
2023-11-18T08:31:33.979Z,10.10
2023-11-18T08:34:21.006Z,10.30
2023-11-18T08:37:06.556Z,10.30
2023-11-18T08:39:52.526Z,10.00
2023-11-18T08:42:38.826Z,10.20
2023-11-18T08:45:29.375Z,10.50
2023-11-18T08:48:16.658Z,10.10
2023-11-18T08:51:04.199Z,10.00
2023-11-18T08:53:52.003Z,10.00
2023-11-18T08:56:43.227Z,10.20
2023-11-18T08:59:29.008Z,9.90
2023-11-18T09:02:16.304Z,10.00
2023-11-18T09:05:07.916Z,9.90
2023-11-18T09:07:58.884Z,10.50
2023-11-18T09:10:44.843Z,10.60
2023-11-18T09:13:31.209Z,10.90
2023-11-18T09:16:17.238Z,10.90
2023-11-18T09:19:04.055Z,10.60
2023-11-18T09:21:50.253Z,10.40
2023-11-18T09:24:37.759Z,10.70
2023-11-18T09:27:24.061Z,10.60
2023-11-18T09:30:14.961Z,10.70
2023-11-18T09:33:03.930Z,10.90
2023-11-18T09:35:50.069Z,11.30
2023-11-18T09:38:36.977Z,10.80
2023-11-18T09:41:28.969Z,10.50
2023-11-18T09:44:16.411Z,10.40
2023-11-18T09:47:10.587Z,10.50
2023-11-18T09:50:00.794Z,10.60
2023-11-18T09:52:53.131Z,10.50
2023-11-18T09:55:46.038Z,10.20
2023-11-18T09:58:42.340Z,10.10
2023-11-18T10:01:29.390Z,10.10
2023-11-18T10:04:19.548Z,10.10
2023-11-18T10:07:05.838Z,10.10
2023-11-18T10:09:56.759Z,9.90
2023-11-18T10:12:44.557Z,10.10
2023-11-18T10:15:32.783Z,9.90
2023-11-18T10:18:24.130Z,10.00
2023-11-18T10:21:12.775Z,10.30
2023-11-18T10:24:02.359Z,10.60
2023-11-18T10:26:57.482Z,10.70
2023-11-18T10:29:43.491Z,10.60
2023-11-18T10:32:31.190Z,10.50
2023-11-18T10:35:19.667Z,10.70
2023-11-18T10:38:08.654Z,10.90
2023-11-18T10:40:59.112Z,10.70
2023-11-18T10:43:45.837Z,10.70
2023-11-18T10:46:33.335Z,10.80
2023-11-18T10:49:21.772Z,10.60
2023-11-18T10:52:09.878Z,10.80
2023-11-18T10:54:57.085Z,10.70
2023-11-18T10:57:44.192Z,10.60
2023-11-18T11:00:34.781Z,10.80
2023-11-18T11:03:20.794Z,10.80
2023-11-18T11:06:20.483Z,11.00
2023-11-18T11:09:15.472Z,10.70
2023-11-18T11:12:06.223Z,10.40
2023-11-18T11:14:59.185Z,10.00
2023-11-18T11:17:56.261Z,9.90
2023-11-18T11:20:50.156Z,10.00
2023-11-18T11:23:50.860Z,9.90
2023-11-18T11:26:46.262Z,10.00
2023-11-18T11:29:40.959Z,10.20
2023-11-18T11:32:39.438Z,10.40
2023-11-18T11:35:32.164Z,10.40
2023-11-18T11:38:19.526Z,10.20
2023-11-18T11:41:09.664Z,9.90
2023-11-18T11:43:58.967Z,9.90
2023-11-18T11:46:45.255Z,9.80
2023-11-18T11:49:38.135Z,9.40
2023-11-18T11:52:30.786Z,9.80
2023-11-18T11:55:24.945Z,9.80
2023-11-18T11:58:34.345Z,9.90
2023-11-18T12:01:31.117Z,10.10
2023-11-18T12:04:23.026Z,10.20
2023-11-18T12:07:18.466Z,10.50
2023-11-18T12:10:14.805Z,10.40
2023-11-18T12:13:17.444Z,10.50
2023-11-18T12:16:05.913Z,10.60
2023-11-18T12:19:43.276Z,10.50
2023-11-18T12:22:49.390Z,10.50
2023-11-18T12:25:37.641Z,10.40
2023-11-18T12:28:35.466Z,10.60
2023-11-18T12:31:42.055Z,10.40
2023-11-18T12:34:53.024Z,10.30
2023-11-18T12:38:08.268Z,10.30
2023-11-18T12:41:00.951Z,10.50
2023-11-18T12:43:55.080Z,10.40
2023-11-18T12:46:51.723Z,10.40
2023-11-18T12:49:42.268Z,10.30
2023-11-18T12:52:29.176Z,10.20
2023-11-18T12:55:20.258Z,10.20
2023-11-18T12:58:06.788Z,9.90
2023-11-18T13:00:52.479Z,10.10
2023-11-18T13:03:39.614Z,10.10
2023-11-18T13:06:29.677Z,10.30
2023-11-18T13:09:26.009Z,10.30
2023-11-18T13:12:15.849Z,10.10
2023-11-18T13:15:01.937Z,10.30
2023-11-18T13:17:59.308Z,10.40
2023-11-18T13:20:58.508Z,10.30
2023-11-18T13:23:47.323Z,10.20
2023-11-18T13:26:34.471Z,10.30
2023-11-18T13:29:22.708Z,10.30
2023-11-18T13:32:11.206Z,10.20
2023-11-18T13:34:56.969Z,10.20
2023-11-18T13:37:46.709Z,10.20
2023-11-18T13:40:43.993Z,10.10
2023-11-18T13:43:29.534Z,10.40
2023-11-18T13:46:15.804Z,10.30
2023-11-18T13:49:01.474Z,10.50
2023-11-18T13:51:47.798Z,10.20
2023-11-18T13:54:35.835Z,10.30
2023-11-18T13:57:23.145Z,10.20
2023-11-18T14:00:16.766Z,10.30
2023-11-18T14:03:02.813Z,10.30
2023-11-18T14:05:48.888Z,10.40
2023-11-18T14:08:37.360Z,10.60
2023-11-18T14:11:25.431Z,10.70
2023-11-18T14:14:11.670Z,10.50
2023-11-18T14:16:59.155Z,10.20
2023-11-18T14:19:45.085Z,10.20
2023-11-18T14:22:30.925Z,10.40
2023-11-18T14:25:18.440Z,10.40
2023-11-18T14:28:05.877Z,10.40
2023-11-18T14:30:51.803Z,10.40
2023-11-18T14:33:38.187Z,10.10
2023-11-18T14:36:25.156Z,10.30
2023-11-18T14:39:11.390Z,10.30
2023-11-18T14:41:57.489Z,10.40
2023-11-18T14:44:44.392Z,10.60
2023-11-18T14:47:32.976Z,11.00
2023-11-18T14:50:21.069Z,10.70
2023-11-18T14:53:07.410Z,11.00
2023-11-18T14:55:53.248Z,10.90
2023-11-18T14:58:39.703Z,10.60
2023-11-18T15:01:27.268Z,10.80
2023-11-18T15:04:13.451Z,10.80
2023-11-18T15:06:59.520Z,10.90
2023-11-18T15:09:45.116Z,10.70
2023-11-18T15:12:31.577Z,10.80
2023-11-18T15:15:19.701Z,10.60
2023-11-18T15:18:15.132Z,10.70
2023-11-18T15:21:01.231Z,10.70
2023-11-18T15:23:47.693Z,10.90
2023-11-18T15:26:33.887Z,10.90
2023-11-18T15:29:20.062Z,10.90
2023-11-18T15:32:06.543Z,10.80
2023-11-18T15:34:54.160Z,10.40
2023-11-18T15:37:42.593Z,10.40
2023-11-18T15:40:29.457Z,10.50
2023-11-18T15:43:15.111Z,10.60
2023-11-18T15:46:00.766Z,10.40
2023-11-18T15:48:46.323Z,10.50
2023-11-18T15:51:33.318Z,10.70
2023-11-18T15:54:20.109Z,10.70
2023-11-18T15:57:06.057Z,10.60
2023-11-18T15:59:51.848Z,10.60
2023-11-18T16:02:37.881Z,11.10
2023-11-18T16:05:24.909Z,11.00
2023-11-18T16:08:12.430Z,10.60
2023-11-18T16:10:58.191Z,10.50
2023-11-18T16:13:43.868Z,10.70
2023-11-18T16:16:29.676Z,10.80
2023-11-18T16:19:17.290Z,11.10
2023-11-18T16:22:02.669Z,11.20
2023-11-18T16:24:49.856Z,11.50
2023-11-18T16:27:35.669Z,11.30
2023-11-18T16:30:26.009Z,11.60
2023-11-18T16:33:12.674Z,11.20
2023-11-18T16:35:59.965Z,11.20
2023-11-18T16:38:47.578Z,11.40
2023-11-18T16:41:43.320Z,11.20
2023-11-18T16:44:31.770Z,11.40
2023-11-18T16:47:17.687Z,11.40
2023-11-18T16:50:04.668Z,11.20
2023-11-18T16:52:51.451Z,11.20
2023-11-18T16:55:37.192Z,11.30
2023-11-18T16:58:24.545Z,11.40
2023-11-18T17:01:10.421Z,11.80
2023-11-18T17:03:56.242Z,12.10
2023-11-18T17:06:42.864Z,12.10
2023-11-18T17:09:28.813Z,12.40
2023-11-18T17:12:14.602Z,12.40
2023-11-18T17:15:01.617Z,12.40
2023-11-18T17:17:48.938Z,12.50
2023-11-18T17:20:35.146Z,12.50
2023-11-18T17:23:20.905Z,12.40
2023-11-18T17:26:08.730Z,12.30
2023-11-18T17:28:54.890Z,12.40
2023-11-18T17:31:42.627Z,12.70
2023-11-18T17:34:29.383Z,13.00
2023-11-18T17:37:15.346Z,13.10
2023-11-18T17:40:00.889Z,13.20
2023-11-18T17:42:46.482Z,13.30
2023-11-18T17:45:32.314Z,13.40
2023-11-18T17:48:19.492Z,13.40
2023-11-18T17:51:05.695Z,13.20
2023-11-18T17:53:51.529Z,13.30
2023-11-18T17:56:36.995Z,13.20
2023-11-18T17:59:23.079Z,13.30
2023-11-18T18:02:09.605Z,13.30
2023-11-18T18:04:56.811Z,13.20
2023-11-18T18:07:43.537Z,13.30
2023-11-18T18:10:29.896Z,13.10
2023-11-18T18:13:16.552Z,13.30
2023-11-18T18:16:02.493Z,13.30
2023-11-18T18:18:48.366Z,13.30
2023-11-18T18:21:35.639Z,13.50
2023-11-18T18:24:21.616Z,13.80
2023-11-18T18:27:07.436Z,13.70
2023-11-18T18:29:53.568Z,13.80
2023-11-18T18:32:39.865Z,13.90
2023-11-18T18:35:26.938Z,13.90
2023-11-18T18:38:14.817Z,13.60
2023-11-18T18:41:01.746Z,13.50
2023-11-18T18:43:47.811Z,13.40
2023-11-18T18:46:33.879Z,13.50
2023-11-18T18:49:20.151Z,13.90
2023-11-18T18:52:06.276Z,13.90
2023-11-18T18:54:54.558Z,13.80
2023-11-18T18:57:40.486Z,14.10
2023-11-18T19:00:26.037Z,14.30
2023-11-18T19:03:12.966Z,14.20
2023-11-18T19:05:58.911Z,14.30
2023-11-18T19:08:44.735Z,14.20
2023-11-18T19:11:32.503Z,14.00
2023-11-18T19:14:18.815Z,14.30
2023-11-18T19:17:06.230Z,14.10
2023-11-18T19:19:52.171Z,13.90
2023-11-18T19:22:38.296Z,14.00
2023-11-18T19:25:24.486Z,14.20
2023-11-18T19:28:12.410Z,14.40
2023-11-18T19:30:58.058Z,14.50
2023-11-18T19:33:44.606Z,14.40
2023-11-18T19:36:30.841Z,14.50
2023-11-18T19:39:16.458Z,14.70
2023-11-18T19:42:19.582Z,14.90
2023-11-18T19:45:09.420Z,14.80
2023-11-18T19:47:55.574Z,14.70
2023-11-18T19:50:41.401Z,14.80
2023-11-18T19:53:27.744Z,14.80
2023-11-18T19:56:15.554Z,15.00
2023-11-18T19:59:01.465Z,15.00
2023-11-18T20:01:55.750Z,15.00
2023-11-18T20:04:43.055Z,14.80
2023-11-18T20:07:31.393Z,14.90
2023-11-18T20:10:17.424Z,14.70
2023-11-18T20:13:03.527Z,15.00
2023-11-18T20:15:50.430Z,15.00
2023-11-18T20:18:38.481Z,15.20
2023-11-18T20:21:24.881Z,15.30
2023-11-18T20:24:12.871Z,15.20
2023-11-18T20:26:59.092Z,15.20
2023-11-18T20:29:45.386Z,15.10
2023-11-18T20:32:32.182Z,15.40
2023-11-18T20:35:20.334Z,15.30
2023-11-18T20:38:06.811Z,15.20
2023-11-18T20:40:53.000Z,15.40
2023-11-18T20:43:38.528Z,15.50
2023-11-18T20:46:26.193Z,15.50
2023-11-18T20:49:12.743Z,15.50
2023-11-18T20:51:59.589Z,15.50
2023-11-18T20:54:45.362Z,15.50
2023-11-18T20:57:31.280Z,15.20
2023-11-18T21:00:21.168Z,15.40
2023-11-18T21:03:07.501Z,15.20
2023-11-18T21:05:54.922Z,15.40
2023-11-18T21:08:42.978Z,15.40
2023-11-18T21:11:29.072Z,15.40
2023-11-18T21:14:15.226Z,15.40
2023-11-18T21:17:08.508Z,15.50
2023-11-18T21:19:54.708Z,15.40
2023-11-18T21:22:41.878Z,15.40
2023-11-18T21:25:28.991Z,15.70
2023-11-18T21:28:14.776Z,15.50
2023-11-18T21:31:00.653Z,15.60
2023-11-18T21:33:46.499Z,15.70
2023-11-18T21:36:32.182Z,15.30
2023-11-18T21:39:19.269Z,15.50
2023-11-18T21:42:08.677Z,15.80
2023-11-18T21:44:55.522Z,15.80
2023-11-18T21:47:46.191Z,15.70
2023-11-18T21:50:34.485Z,15.90
2023-11-18T21:53:24.334Z,16.00
2023-11-18T21:56:11.047Z,16.00
2023-11-18T21:58:58.478Z,16.10
2023-11-18T22:01:47.199Z,16.10
2023-11-18T22:04:33.019Z,16.20
2023-11-18T22:07:19.215Z,16.20
2023-11-18T22:10:05.503Z,16.10
2023-11-18T22:12:53.821Z,16.40
2023-11-18T22:15:41.016Z,16.40
2023-11-18T22:18:27.654Z,16.50
2023-11-18T22:21:13.187Z,16.50
2023-11-18T22:23:58.777Z,16.50
2023-11-18T22:26:44.503Z,16.50
2023-11-18T22:29:30.560Z,16.50
2023-11-18T22:32:18.268Z,16.60
2023-11-18T22:35:05.026Z,16.60
2023-11-18T22:37:51.262Z,16.30
2023-11-18T22:40:39.757Z,16.40
2023-11-18T22:43:25.534Z,16.40
2023-11-18T22:46:12.038Z,16.40
2023-11-18T22:48:59.090Z,16.60
2023-11-18T22:51:44.613Z,16.80
2023-11-18T22:54:30.330Z,16.80
2023-11-18T22:57:15.782Z,16.80
2023-11-18T23:00:01.760Z,17.00
2023-11-18T23:02:47.756Z,16.80
2023-11-18T23:05:40.424Z,16.80
2023-11-18T23:08:26.233Z,16.90
2023-11-18T23:11:13.221Z,16.80
2023-11-18T23:14:01.384Z,16.70
2023-11-18T23:16:47.207Z,16.70
2023-11-18T23:19:38.414Z,16.90
2023-11-18T23:22:33.519Z,16.70
2023-11-18T23:25:20.320Z,16.40
2023-11-18T23:28:08.952Z,16.40
2023-11-18T23:30:58.345Z,16.50
2023-11-18T23:33:43.910Z,16.60
2023-11-18T23:36:29.651Z,16.80
2023-11-18T23:39:17.592Z,16.80
2023-11-18T23:42:03.760Z,16.80
2023-11-18T23:44:49.496Z,16.80
2023-11-18T23:47:35.423Z,16.80
2023-11-18T23:50:24.923Z,16.70
2023-11-18T23:53:10.483Z,17.00
2023-11-18T23:55:57.396Z,16.90
2023-11-18T23:58:42.924Z,16.80
